createdAt,value
2022-10-06T00:00:00.944Z,15.15
2022-10-06T00:02:28.542Z,13.27
2022-10-06T00:04:55.415Z,16.08
2022-10-06T00:07:22.221Z,13.70
2022-10-06T00:09:48.897Z,13.55
2022-10-06T00:12:15.743Z,13.57
2022-10-06T00:14:42.454Z,13.52
2022-10-06T00:17:09.128Z,14.85
2022-10-06T00:19:35.962Z,14.45
2022-10-06T00:22:02.945Z,13.57
2022-10-06T00:24:29.601Z,12.55
2022-10-06T00:26:56.457Z,13.27
2022-10-06T00:29:23.191Z,12.13
2022-10-06T00:31:49.857Z,13.10
2022-10-06T00:34:16.850Z,12.40
2022-10-06T00:36:43.937Z,11.93
2022-10-06T00:39:10.595Z,12.77
2022-10-06T00:41:38.932Z,12.57
2022-10-06T00:44:05.602Z,10.80
2022-10-06T00:46:46.223Z,11.05
2022-10-06T00:49:26.133Z,11.07
2022-10-06T00:51:58.217Z,10.57
2022-10-06T00:54:25.616Z,10.82
2022-10-06T00:56:52.882Z,11.95
2022-10-06T00:59:20.347Z,10.43
2022-10-06T01:02:01.863Z,11.52
2022-10-06T01:04:36.638Z,10.73
2022-10-06T01:07:03.881Z,10.85
2022-10-06T01:09:31.444Z,11.60
2022-10-06T01:12:02.302Z,11.05
2022-10-06T01:14:29.913Z,11.88
2022-10-06T01:17:02.620Z,11.77
2022-10-06T01:19:35.991Z,11.00
2022-10-06T01:22:06.208Z,12.38
2022-10-06T01:24:33.143Z,14.68
2022-10-06T01:27:01.265Z,14.50
2022-10-06T01:29:28.499Z,16.90
2022-10-06T01:31:55.427Z,16.05
2022-10-06T01:34:22.360Z,15.57
2022-10-06T01:36:49.155Z,18.63
2022-10-06T01:39:15.872Z,15.45
2022-10-06T01:41:42.664Z,15.50
2022-10-06T01:44:09.315Z,14.85
2022-10-06T01:46:36.044Z,14.75
2022-10-06T01:49:02.854Z,15.13
2022-10-06T01:51:29.589Z,15.20
2022-10-06T01:53:57.858Z,14.30
2022-10-06T01:56:24.738Z,13.07
2022-10-06T01:58:51.391Z,14.05
2022-10-06T02:01:18.178Z,14.60
2022-10-06T02:03:45.498Z,13.57
2022-10-06T02:06:12.275Z,13.82
2022-10-06T02:08:39.115Z,14.45
2022-10-06T02:11:09.534Z,14.82
2022-10-06T02:13:37.877Z,14.20
2022-10-06T02:16:06.815Z,13.70
2022-10-06T02:18:34.588Z,15.27
2022-10-06T02:21:02.230Z,14.02
2022-10-06T02:23:30.359Z,13.90
2022-10-06T02:26:06.207Z,13.75
2022-10-06T02:28:33.675Z,13.65
2022-10-06T02:31:07.578Z,13.38
2022-10-06T02:33:36.105Z,14.10
2022-10-06T02:36:06.104Z,13.98
2022-10-06T02:38:33.594Z,14.02
2022-10-06T02:41:02.028Z,13.43
2022-10-06T02:43:30.132Z,13.52
2022-10-06T02:46:01.700Z,14.25
2022-10-06T02:48:29.629Z,14.80
2022-10-06T02:51:02.157Z,12.82
2022-10-06T02:53:29.595Z,14.65
2022-10-06T02:56:06.765Z,14.18
2022-10-06T02:58:34.173Z,15.10
2022-10-06T03:01:10.910Z,15.35
2022-10-06T03:03:38.122Z,15.18
2022-10-06T03:06:21.976Z,15.45
2022-10-06T03:08:58.619Z,16.67
2022-10-06T03:11:28.526Z,16.77
2022-10-06T03:13:55.936Z,16.67
2022-10-06T03:16:32.380Z,17.23
2022-10-06T03:18:59.768Z,15.82
2022-10-06T03:21:29.816Z,16.95
2022-10-06T03:23:57.977Z,16.83
2022-10-06T03:26:27.857Z,15.00
2022-10-06T03:28:55.664Z,16.30
2022-10-06T03:31:23.495Z,16.40
2022-10-06T03:33:51.743Z,14.40
2022-10-06T03:36:21.477Z,15.35
2022-10-06T03:38:48.683Z,15.43
2022-10-06T03:41:18.196Z,15.15
2022-10-06T03:43:46.564Z,16.33
2022-10-06T03:46:20.004Z,15.38
2022-10-06T03:48:47.970Z,15.80
2022-10-06T03:51:17.905Z,14.77
2022-10-06T03:53:50.136Z,16.10
2022-10-06T03:56:20.002Z,16.17
2022-10-06T03:58:50.666Z,16.70
2022-10-06T04:01:26.233Z,15.45
2022-10-06T04:03:57.731Z,15.48
2022-10-06T04:06:25.578Z,15.48
2022-10-06T04:08:53.197Z,15.57
2022-10-06T04:11:22.942Z,15.32
2022-10-06T04:13:57.267Z,14.40
2022-10-06T04:16:26.512Z,13.38
2022-10-06T04:18:55.544Z,14.13
2022-10-06T04:21:23.511Z,13.30
2022-10-06T04:23:54.801Z,13.88
2022-10-06T04:26:23.392Z,14.40
2022-10-06T04:28:50.671Z,13.77
2022-10-06T04:31:20.057Z,13.70
2022-10-06T04:33:51.051Z,13.73
2022-10-06T04:36:23.305Z,13.57
2022-10-06T04:38:51.440Z,12.93
2022-10-06T04:41:19.854Z,12.80
2022-10-06T04:43:47.968Z,13.27
2022-10-06T04:46:41.386Z,13.20
2022-10-06T04:49:04.160Z,13.23
2022-10-06T04:51:34.265Z,13.43
2022-10-06T04:54:02.538Z,13.32
2022-10-06T04:56:33.857Z,13.30
2022-10-06T04:59:03.562Z,14.18
2022-10-06T05:01:35.727Z,12.60
2022-10-06T05:04:04.546Z,14.05
2022-10-06T05:06:34.082Z,13.90
2022-10-06T05:09:04.399Z,13.40
2022-10-06T05:11:32.169Z,15.00
2022-10-06T05:13:59.373Z,14.80
2022-10-06T05:16:28.785Z,14.48
2022-10-06T05:18:57.643Z,14.30
2022-10-06T05:21:34.627Z,13.35
2022-10-06T05:24:03.009Z,13.73
2022-10-06T05:26:33.169Z,18.38
2022-10-06T05:29:11.796Z,20.45
2022-10-06T05:31:44.701Z,21.05
2022-10-06T05:34:16.899Z,22.15
2022-10-06T05:36:43.872Z,24.92
2022-10-06T05:39:10.581Z,23.10
2022-10-06T05:41:38.147Z,25.15
2022-10-06T05:44:05.237Z,26.85
2022-10-06T05:46:33.304Z,25.48
2022-10-06T05:49:15.984Z,24.20
2022-10-06T05:51:42.849Z,22.38
2022-10-06T05:54:09.500Z,20.40
2022-10-06T05:56:38.143Z,19.63
2022-10-06T05:59:05.863Z,19.33
2022-10-06T06:01:43.047Z,18.10
2022-10-06T06:04:16.553Z,21.35
2022-10-06T06:06:45.532Z,20.30
2022-10-06T06:09:17.647Z,20.40
2022-10-06T06:11:47.278Z,18.15
2022-10-06T06:14:16.401Z,20.55
2022-10-06T06:17:07.163Z,19.75
2022-10-06T06:19:31.921Z,18.65
2022-10-06T06:22:01.298Z,20.33
2022-10-06T06:24:35.385Z,18.40
2022-10-06T06:27:02.228Z,18.38
2022-10-06T06:29:29.055Z,18.10
2022-10-06T06:31:55.708Z,16.95
2022-10-06T06:34:22.933Z,15.13
2022-10-06T06:36:53.609Z,16.00
2022-10-06T06:39:22.608Z,16.35
2022-10-06T06:41:49.477Z,15.60
2022-10-06T06:44:16.322Z,15.38
2022-10-06T06:46:46.865Z,15.52
2022-10-06T06:49:13.876Z,16.05
2022-10-06T06:51:43.437Z,16.33
2022-10-06T06:54:11.630Z,15.63
2022-10-06T06:56:39.073Z,15.30
2022-10-06T06:59:08.960Z,15.07
2022-10-06T07:01:37.475Z,17.27
2022-10-06T07:04:04.686Z,17.48
2022-10-06T07:06:32.635Z,20.23
2022-10-06T07:09:00.169Z,19.48
2022-10-06T07:11:33.390Z,18.65
2022-10-06T07:14:05.345Z,17.20
2022-10-06T07:16:52.640Z,16.08
2022-10-06T07:19:39.785Z,15.35
2022-10-06T07:22:34.985Z,16.45
2022-10-06T07:25:07.517Z,15.20
2022-10-06T07:27:45.521Z,16.13
2022-10-06T07:30:25.761Z,14.68
2022-10-06T07:32:53.634Z,14.82
2022-10-06T07:35:21.581Z,14.95
2022-10-06T07:37:49.951Z,13.32
2022-10-06T07:40:17.428Z,13.98
2022-10-06T07:42:53.724Z,13.07
2022-10-06T07:45:46.375Z,13.63
2022-10-06T07:48:22.491Z,12.68
2022-10-06T07:50:51.064Z,12.60
2022-10-06T07:53:18.629Z,13.35
2022-10-06T07:55:47.656Z,12.35
2022-10-06T07:58:17.030Z,12.77
2022-10-06T08:00:44.825Z,13.07
2022-10-06T08:03:14.669Z,11.55
2022-10-06T08:05:41.587Z,12.00
2022-10-06T08:08:10.205Z,11.75
2022-10-06T08:10:37.280Z,13.00
2022-10-06T08:13:07.705Z,11.18
2022-10-06T08:15:35.052Z,10.75
2022-10-06T08:18:06.203Z,11.52
2022-10-06T08:20:35.659Z,12.00
2022-10-06T08:23:02.508Z,11.63
2022-10-06T08:25:43.983Z,16.02
2022-10-06T08:28:50.076Z,12.63
2022-10-06T08:31:33.593Z,12.13
2022-10-06T08:34:12.979Z,12.70
2022-10-06T08:37:35.629Z,12.23
2022-10-06T08:40:49.761Z,11.52
2022-10-06T08:44:08.669Z,10.75
2022-10-06T08:46:54.653Z,10.35
2022-10-06T08:49:44.587Z,10.07
2022-10-06T08:53:20.554Z,10.70
2022-10-06T08:56:52.223Z,9.15
2022-10-06T09:02:50.494Z,10.15
2022-10-06T09:06:12.917Z,9.00
2022-10-06T09:08:55.186Z,5.25
2022-10-06T09:15:12.219Z,4.68
2022-10-06T09:17:59.480Z,5.03
2022-10-06T09:20:58.447Z,4.63
2022-10-06T09:24:02.638Z,4.15
2022-10-06T09:26:44.787Z,4.07
2022-10-06T09:29:22.995Z,3.88
2022-10-06T09:32:10.490Z,4.45
2022-10-06T09:38:21.428Z,4.90
2022-10-06T09:44:10.307Z,3.90
2022-10-06T09:46:46.194Z,4.60
2022-10-06T09:49:33.762Z,4.15
2022-10-06T09:52:15.285Z,4.13
2022-10-06T09:55:12.317Z,4.18
2022-10-06T09:57:47.827Z,4.07
2022-10-06T10:00:48.026Z,4.80
2022-10-06T10:05:50.468Z,4.00
2022-10-06T10:08:30.780Z,3.97
2022-10-06T10:11:32.473Z,4.10
2022-10-06T10:14:02.167Z,4.13
2022-10-06T10:16:35.063Z,4.30
2022-10-06T10:19:05.712Z,4.00
2022-10-06T10:21:35.407Z,4.00
2022-10-06T10:24:08.457Z,4.28
2022-10-06T10:26:49.709Z,4.25
2022-10-06T10:29:33.165Z,4.18
2022-10-06T10:32:41.789Z,4.40
2022-10-06T10:35:48.757Z,4.03
2022-10-06T10:38:21.057Z,4.47
2022-10-06T10:41:01.447Z,3.72
2022-10-06T10:43:58.570Z,3.83
2022-10-06T10:46:58.581Z,4.70
2022-10-06T10:49:34.358Z,4.40
2022-10-06T10:52:16.220Z,4.15
2022-10-06T10:55:18.390Z,4.03
2022-10-06T10:57:50.291Z,4.45
2022-10-06T11:00:28.856Z,4.45
2022-10-06T11:02:59.379Z,3.78
2022-10-06T11:06:10.480Z,3.88
2022-10-06T11:08:52.906Z,3.40
2022-10-06T11:11:42.181Z,3.28
2022-10-06T11:14:28.289Z,3.50
2022-10-06T11:17:05.029Z,3.45
2022-10-06T11:19:48.525Z,3.40
2022-10-06T11:22:47.619Z,3.20
2022-10-06T11:25:35.083Z,3.10
2022-10-06T11:28:13.465Z,3.90
2022-10-06T11:31:04.274Z,3.90
2022-10-06T11:33:45.763Z,3.35
2022-10-06T11:36:20.503Z,3.70
2022-10-06T11:38:54.398Z,4.78
2022-10-06T11:41:34.542Z,3.67
2022-10-06T11:46:45.458Z,3.90
2022-10-06T11:49:31.829Z,3.05
2022-10-06T11:52:08.641Z,4.07
2022-10-06T11:54:47.482Z,4.30
2022-10-06T11:57:29.318Z,4.15
2022-10-06T12:00:18.169Z,3.25
2022-10-06T12:02:46.947Z,3.38
2022-10-06T12:05:55.917Z,4.50
2022-10-06T12:08:17.459Z,3.78
2022-10-06T12:10:51.081Z,4.25
2022-10-06T12:14:26.623Z,3.53
2022-10-06T12:19:28.708Z,4.22
2022-10-06T12:22:01.279Z,3.70
2022-10-06T12:24:34.140Z,3.47
2022-10-06T12:27:39.003Z,3.63
2022-10-06T12:30:21.449Z,3.47
2022-10-06T12:32:54.616Z,3.88
2022-10-06T12:35:38.059Z,3.25
2022-10-06T12:38:26.642Z,4.00
2022-10-06T12:40:55.658Z,3.38
2022-10-06T12:43:22.501Z,3.20
2022-10-06T12:45:58.402Z,3.78
2022-10-06T12:48:40.679Z,4.25
2022-10-06T12:51:13.352Z,3.75
2022-10-06T12:54:06.297Z,3.72
2022-10-06T12:56:38.674Z,3.88
2022-10-06T12:59:20.434Z,4.00
2022-10-06T13:01:51.599Z,3.45
2022-10-06T13:04:39.104Z,3.25
2022-10-06T13:07:23.877Z,4.43
2022-10-06T13:09:54.529Z,3.80
2022-10-06T13:12:30.628Z,3.63
2022-10-06T13:15:19.737Z,3.85
2022-10-06T13:17:53.351Z,3.92
2022-10-06T13:20:37.717Z,3.30
2022-10-06T13:23:12.490Z,3.20
2022-10-06T13:25:56.242Z,4.55
2022-10-06T13:28:34.557Z,3.97
2022-10-06T13:31:11.936Z,4.18
2022-10-06T13:33:41.598Z,3.80
2022-10-06T13:36:10.928Z,3.20
2022-10-06T13:38:38.645Z,3.70
2022-10-06T13:41:24.051Z,3.70
2022-10-06T13:43:58.354Z,3.72
2022-10-06T13:46:31.318Z,3.97
2022-10-06T13:49:16.956Z,4.28
2022-10-06T13:51:50.428Z,4.03
2022-10-06T13:54:41.850Z,4.10
2022-10-06T13:57:46.987Z,4.75
2022-10-06T14:00:18.250Z,4.22
2022-10-06T14:02:55.222Z,4.45
2022-10-06T14:05:41.418Z,4.50
2022-10-06T14:08:10.942Z,4.75
2022-10-06T14:10:40.725Z,4.65
2022-10-06T14:13:20.650Z,5.28
2022-10-06T14:15:57.582Z,4.53
2022-10-06T14:18:37.062Z,4.50
2022-10-06T14:21:36.841Z,4.60
2022-10-06T14:24:09.895Z,4.50
2022-10-06T14:26:37.553Z,5.43
2022-10-06T14:29:04.673Z,7.50
2022-10-06T14:31:33.952Z,7.97
2022-10-06T14:34:01.676Z,4.97
2022-10-06T14:36:30.974Z,6.35
2022-10-06T14:38:59.806Z,5.63
2022-10-06T14:41:28.879Z,4.47
2022-10-06T14:43:57.697Z,5.03
2022-10-06T14:46:25.598Z,4.97
2022-10-06T14:48:55.711Z,4.82
2022-10-06T14:51:24.957Z,4.50
2022-10-06T14:53:57.491Z,4.67
2022-10-06T14:56:26.912Z,5.03
2022-10-06T14:58:55.009Z,4.68
2022-10-06T15:01:25.342Z,5.53
2022-10-06T15:03:58.174Z,4.80
2022-10-06T15:06:44.354Z,5.30
2022-10-06T15:09:11.602Z,5.82
2022-10-06T15:11:42.712Z,4.88
2022-10-06T15:14:21.674Z,5.32
2022-10-06T15:16:49.004Z,6.10
2022-10-06T15:19:16.183Z,5.63
2022-10-06T15:21:47.349Z,7.40
2022-10-06T15:24:20.324Z,12.63
2022-10-06T15:27:06.482Z,12.70
2022-10-06T15:29:35.275Z,8.23
2022-10-06T15:32:02.975Z,8.35
2022-10-06T15:34:34.353Z,8.48
2022-10-06T15:37:02.494Z,7.97
2022-10-06T15:39:35.831Z,8.57
2022-10-06T15:42:03.266Z,7.70
2022-10-06T15:44:34.985Z,7.70
2022-10-06T15:47:07.098Z,6.75
2022-10-06T15:49:40.498Z,7.75
2022-10-06T15:52:09.166Z,6.60
2022-10-06T15:54:39.894Z,8.57
2022-10-06T15:57:17.849Z,7.95
2022-10-06T16:00:21.063Z,6.20
2022-10-06T16:02:46.894Z,8.10
2022-10-06T16:05:33.154Z,11.85
2022-10-06T16:07:59.902Z,9.07
2022-10-06T16:10:33.764Z,8.27
2022-10-06T16:13:02.043Z,9.63
2022-10-06T16:15:28.885Z,9.02
2022-10-06T16:17:59.206Z,8.55
2022-10-06T16:22:57.795Z,8.40
2022-10-06T16:25:27.288Z,9.68
2022-10-06T16:27:56.639Z,8.27
2022-10-06T16:30:24.443Z,7.07
2022-10-06T16:32:58.679Z,7.15
2022-10-06T16:35:25.606Z,6.57
2022-10-06T16:37:58.072Z,6.75
2022-10-06T16:40:24.870Z,6.70
2022-10-06T16:42:52.347Z,6.13
2022-10-06T16:45:19.202Z,6.00
2022-10-06T16:47:47.543Z,6.25
2022-10-06T16:50:14.479Z,6.68
2022-10-06T16:52:41.525Z,7.78
2022-10-06T16:55:08.576Z,7.57
2022-10-06T16:57:43.573Z,7.32
2022-10-06T17:00:24.442Z,6.93
2022-10-06T17:02:58.675Z,7.82
2022-10-06T17:08:42.726Z,10.73
2022-10-06T17:11:47.082Z,11.70
2022-10-06T17:14:53.388Z,11.80
2022-10-06T17:17:25.837Z,12.10
2022-10-06T17:21:20.402Z,14.45
2022-10-06T17:26:31.742Z,11.73
2022-10-06T17:29:11.072Z,12.82
2022-10-06T17:31:54.209Z,12.90
2022-10-06T17:35:01.283Z,12.80
2022-10-06T17:40:52.132Z,15.95
2022-10-06T17:43:38.497Z,16.38
2022-10-06T17:46:32.054Z,16.35
2022-10-06T17:49:44.526Z,18.75
2022-10-06T17:52:31.827Z,16.17
2022-10-06T17:55:04.972Z,17.73
2022-10-06T17:57:38.567Z,17.70
2022-10-06T18:00:18.551Z,17.67
2022-10-06T18:03:02.146Z,15.32
2022-10-06T18:05:39.096Z,15.68
2022-10-06T18:11:25.946Z,16.73
2022-10-06T18:13:55.231Z,15.63
2022-10-06T18:16:55.918Z,16.77
2022-10-06T18:22:18.065Z,20.77
2022-10-06T18:25:04.185Z,20.13
2022-10-06T18:27:39.893Z,21.30
2022-10-06T18:30:36.487Z,21.50
2022-10-06T18:36:06.801Z,22.25
2022-10-06T18:36:12.156Z,19.42
2022-10-06T18:39:07.526Z,17.83
2022-10-06T18:41:41.876Z,21.30
2022-10-06T18:44:11.156Z,27.60
2022-10-06T18:47:05.214Z,23.20
2022-10-06T18:49:50.514Z,19.63
2022-10-06T18:52:41.767Z,25.52
2022-10-06T18:58:21.596Z,21.90
2022-10-06T19:00:56.282Z,18.05
2022-10-06T19:06:16.814Z,18.48
2022-10-06T19:08:43.933Z,20.13
2022-10-06T19:11:29.518Z,25.35
2022-10-06T19:14:01.222Z,20.33
2022-10-06T19:16:30.275Z,19.83
2022-10-06T19:18:57.193Z,15.98
2022-10-06T19:21:43.912Z,13.77
2022-10-06T19:24:14.272Z,13.75
2022-10-06T19:26:45.950Z,13.90
2022-10-06T19:29:14.742Z,13.73
2022-10-06T19:31:49.210Z,14.95
2022-10-06T19:34:21.765Z,17.38
2022-10-06T19:36:53.875Z,18.02
2022-10-06T19:39:28.803Z,16.65
2022-10-06T19:42:16.700Z,20.23
2022-10-06T19:44:46.210Z,21.95
2022-10-06T19:47:15.252Z,22.42
2022-10-06T19:49:45.511Z,23.20
2022-10-06T19:52:17.767Z,22.50
2022-10-06T19:54:48.618Z,26.70
2022-10-06T19:57:19.262Z,23.90
2022-10-06T19:59:53.703Z,24.90
2022-10-06T20:02:21.461Z,31.83
2022-10-06T20:04:51.818Z,25.60
2022-10-06T20:09:53.759Z,26.80
2022-10-06T20:12:24.586Z,25.40
2022-10-06T20:14:53.930Z,22.38
2022-10-06T20:17:21.688Z,22.73
2022-10-06T20:19:48.632Z,24.58
2022-10-06T20:22:16.391Z,22.20
2022-10-06T20:24:43.388Z,23.08
2022-10-06T20:27:13.308Z,21.45
2022-10-06T20:29:40.161Z,23.52
2022-10-06T20:32:11.831Z,21.58
2022-10-06T20:34:39.292Z,21.25
2022-10-06T20:37:06.287Z,21.25
2022-10-06T20:39:55.835Z,23.48
2022-10-06T20:42:24.033Z,22.10
2022-10-06T20:44:50.972Z,23.38
2022-10-06T20:47:17.983Z,24.00
2022-10-06T20:49:44.874Z,24.70
2022-10-06T20:52:14.857Z,25.77
2022-10-06T20:54:43.610Z,24.15
2022-10-06T20:57:10.804Z,25.88
2022-10-06T20:59:37.859Z,26.30
2022-10-06T21:02:06.126Z,27.70
2022-10-06T21:04:38.468Z,32.30
2022-10-06T21:07:30.491Z,33.20
2022-10-06T21:10:04.838Z,34.65
2022-10-06T21:12:59.321Z,32.03
2022-10-06T21:18:30.791Z,34.00
2022-10-06T21:21:08.078Z,32.05
2022-10-06T21:24:12.593Z,31.65
2022-10-06T21:33:05.925Z,25.55
2022-10-06T21:36:11.236Z,24.35
2022-10-06T21:39:19.253Z,25.63
2022-10-06T21:42:04.842Z,21.58
2022-10-06T21:44:37.860Z,23.42
2022-10-06T21:47:30.835Z,23.98
2022-10-06T21:50:08.390Z,24.13
2022-10-06T21:52:51.852Z,23.45
2022-10-06T21:55:55.859Z,22.65
2022-10-06T21:58:32.309Z,21.80
2022-10-06T22:01:34.964Z,21.55
2022-10-06T22:04:14.720Z,22.90
2022-10-06T22:07:04.977Z,22.95
2022-10-06T22:09:37.090Z,22.67
2022-10-06T22:12:07.600Z,21.83
2022-10-06T22:14:35.563Z,20.95
2022-10-06T22:17:06.285Z,21.02
2022-10-06T22:19:34.263Z,19.92
2022-10-06T22:22:01.043Z,20.02
2022-10-06T22:24:32.982Z,20.48
2022-10-06T22:27:01.646Z,22.40
2022-10-06T22:29:28.664Z,21.30
2022-10-06T22:31:58.918Z,20.92
2022-10-06T22:34:35.829Z,33.60
2022-10-06T22:37:18.497Z,23.63
2022-10-06T22:40:04.109Z,20.80
2022-10-06T22:42:39.970Z,20.67
2022-10-06T22:45:26.206Z,19.60
2022-10-06T22:48:02.877Z,20.60
2022-10-06T22:50:31.971Z,18.70
2022-10-06T22:52:59.975Z,19.42
2022-10-06T22:55:28.120Z,20.83
2022-10-06T22:57:57.051Z,20.85
2022-10-06T23:00:30.721Z,19.90
2022-10-06T23:02:57.761Z,19.27
2022-10-06T23:05:25.437Z,18.63
2022-10-06T23:07:55.364Z,18.50
2022-10-06T23:10:24.612Z,19.10
2022-10-06T23:12:56.203Z,19.70
2022-10-06T23:15:23.691Z,20.55
2022-10-06T23:17:51.142Z,19.52
2022-10-06T23:20:18.817Z,19.88
2022-10-06T23:22:45.987Z,22.48
2022-10-06T23:25:13.056Z,22.30
2022-10-06T23:27:40.764Z,22.50
2022-10-06T23:30:08.325Z,24.30
2022-10-06T23:32:37.669Z,25.52
2022-10-06T23:35:04.811Z,27.17
2022-10-06T23:37:31.846Z,28.95
2022-10-06T23:40:00.327Z,30.60
2022-10-06T23:42:27.572Z,29.90
2022-10-06T23:45:00.367Z,30.15
2022-10-06T23:47:28.262Z,27.30
2022-10-06T23:49:58.158Z,28.00
2022-10-06T23:52:25.999Z,26.88
2022-10-06T23:54:54.178Z,26.48
2022-10-06T23:57:23.233Z,25.92
2022-10-06T23:59:50.132Z,25.40
